LGTS/SKG Thessaloniki "Makedonia"

Εδώ όλες οι πληροφορίες, ερωτήσεις & φήμες για το αεροδρόμιο «Μακεδονία»
airport123
Economy-Class
Economy-Class
Δημοσιεύσεις: 198
Εγγραφή: 28 Οκτ 2016, 11:51
Αγαπημένη αεροπορική εταιρεία (ICAO Code): AEE
Πλησιέστερο αεροδρόμιο (ICAO Code): LGTS

Re: LGTS/SKG Thessaloniki "Makedonia"

Δημοσίευσηαπό airport123 » 01 Νοέμ 2017, 13:08

Και αν όλα πάνε καλά σήμερα με τα test flights, θα ξεκινήσει να χρησιμοποιείται από αύριο μόνιμα (μέχρι τέλη Απριλίου) από όλα τα αεροσκάφη;
0 x


Ulrike
Business-Class
Business-Class
Δημοσιεύσεις: 464
Εγγραφή: 30 Δεκ 2011, 11:01
Πλησιέστερο αεροδρόμιο (ICAO Code): LGTS

Re: LGTS/SKG Thessaloniki "Makedonia"

Δημοσίευσηαπό Ulrike » 01 Νοέμ 2017, 16:12

Προφανώς κάνουν τεστ με κάποιες μόνο πτήσεις. Έφτασα με την OS, και η προσγείωση έγινε στον κανονικό διάδρομο.
1 x

AirLaw
Economy-Class
Economy-Class
Δημοσιεύσεις: 162
Εγγραφή: 23 Απρ 2009, 06:21

Re: LGTS/SKG Thessaloniki "Makedonia"

Δημοσίευσηαπό AirLaw » 01 Νοέμ 2017, 21:12

Τα test flights ολοκληρώθηκαν. Airport123 ο 10L-28R θα ενεργοποιηθεί μετά τις 10 Νοεμβρίου. Μέχρι τοτε παραμένει για χρήση ως Taxiway μόνο σύμφωνα με το NOTAM A2884/17
3 x

Ulrike
Business-Class
Business-Class
Δημοσιεύσεις: 464
Εγγραφή: 30 Δεκ 2011, 11:01
Πλησιέστερο αεροδρόμιο (ICAO Code): LGTS

Re: LGTS/SKG Thessaloniki "Makedonia"

Δημοσίευσηαπό Ulrike » 02 Νοέμ 2017, 11:48

Δηλ, θα κάνουν τώρα αξιολόγηση των test flights, και ανάλογα με τα αποτελέσματα κάποια στιγμή μετά τις 10 Νοεμβρίου θα αρχίσουν με τα έργα;

Ή θα έχουμε το ίδιο με πέρσι, θα φτάσουμε μέχρι Χριστούγεννα, και μετά διαπιστώνουν ότι τα έργα θα πάνε μέχρι τον Ιούλιο (καλά, το καλοκαίρι θα έχουμε τουλάχιστον λιγότερα προβλήματα με ομίχλη, βροχή κλπ...) :wall:
0 x


Άβαταρ μέλους
CaptainChris
First-Class
First-Class
Δημοσιεύσεις: 917
Εγγραφή: 29 Ιούλ 2003, 19:05
Αγαπημένη αεροπορική εταιρεία (ICAO Code): BAW
Πλησιέστερο αεροδρόμιο (ICAO Code): LGTS
Τοποθεσία: Thessaloniki, Greece, EU
Επικοινωνία:

Re: LGTS/SKG Thessaloniki "Makedonia"

Δημοσίευσηαπό CaptainChris » 02 Νοέμ 2017, 19:57

Η Fraport ξεκινησε τουλαχιστο τιποτα αναβαθμησεις στο κτιριο; η κι αυτοι περιμενουν το τρενο των 7.25;
1 x

airport123
Economy-Class
Economy-Class
Δημοσιεύσεις: 198
Εγγραφή: 28 Οκτ 2016, 11:51
Αγαπημένη αεροπορική εταιρεία (ICAO Code): AEE
Πλησιέστερο αεροδρόμιο (ICAO Code): LGTS

Re: LGTS/SKG Thessaloniki "Makedonia"

Δημοσίευσηαπό airport123 » 03 Νοέμ 2017, 18:06

Μέσα Μαρτίου θα δοθεί κανονικά σε λειτουργία ο διάδρομος προσαπογειώσεων 16/34 στο αεροδρόμιο «Μακεδονία», πράγμα που αναμένεται με ανακοίνωσή του να διαβεβαιώσει ο υπουργός Υποδομών και Μεταφορών κ. Σπίρτζης.
...
Οι εργασίες θα ολοκληρωθούν ακόμη και αν τα συνεργεία του εργολάβου χρειαστεί να δουλεύουν 24 ώρες το 24ωρο, επειδή υπάρχει καθυστέρηση περίπου τριών εβδομάδων για να αρχίσει να χρησιμοποιείται, προσωρινά, σαν διάδρομος, ο τροχόδρομος του «Μακεδονία».
....
Θεωρείται ότι όλα τα τεχνικά θέματα θα έχουν λήξει και ως τις 15 Νοεμβρίου ο τροχόδρομος θα αρχίσει να χρησιμοποιείται ως διάδρομος προσαπογειώσεων


https://www.voria.gr/article/mesa-marti ... -makedonia

Με την ευκαιρία που ρωτάει ο CaptainChris : Ξέρουμε τι αλλαγές θα κάνει η Fraport στο υπάρχων τέρμιναλ; Όλες οι φωτογραφίες της είναι από το νέο τέρμιναλ, έτσι; Θα υπάρξει πχ μετατόπιση κάποιων σταθμών Check-in για να δοθεί παραπάνω χώρος στην αίθουσα αναχωρήσεων; Αλλιώς για να δούμε μια καλύτερη εικόνα του αεροδρομίου θα πρέπει να περιμένουμε μέχρι το 2021 που μέχρι τότε ο υπάρχων αεροσταθμός θα φτάσει τα 8 εκ. επιβάτες!
1 x

skg2012
Low-Cost-Class
Low-Cost-Class
Δημοσιεύσεις: 72
Εγγραφή: 16 Δεκ 2011, 19:21
Αγαπημένη αεροπορική εταιρεία (ICAO Code): BBT
Πλησιέστερο αεροδρόμιο (ICAO Code): LGTS

Re: LGTS/SKG Thessaloniki "Makedonia"

Δημοσίευσηαπό skg2012 » 09 Νοέμ 2017, 13:34

Σήμερα ξεκίνησε επίσημα και η σεζόν ομίχλης 2017-18, με ορατότητες που δεν καλύπτονται ούτε από το ILS Cat.II του RW16. :roll:

METAR LGTS 091050Z 29004KT 0600 0300SE R16/0900 R34/1800 FG SCT005 13/11 Q1020 NOSIG=
METAR LGTS 091020Z VRB03KT 0800 0400SE R16/1000 R34/1800 FG VV002 12/11 Q1021 NOSIG=
METAR LGTS 090950Z VRB03KT 1000 0500SE R16/1200 R34/1800 FG VV002 12/11 Q1021 NOSIG=
METAR LGTS 090920Z VRB03KT 1200 0800SE R16/1400 R34/1900 FG VV002 12/11 Q1021 NOSIG=
METAR LGTS 090850Z VRB02KT 0300 R16/800 R34/1500 FG VV002 11/10 Q1021 NOSIG=
METAR LGTS 090820Z VRB02KT 0200 0100SW R16/0700 R34/0900 FG VV001 10/09 Q1021 NOSIG=
METAR LGTS 090750Z 00000KT 0250 0100SE R16/0400 R34/0650 FG VV001 10/09 Q1021 NOSIG=
METAR LGTS 090720Z VRB02KT 0100 0000SW R16/0250 R34/0250 FG VV001 10/09 Q1021 NOSIG=
METAR LGTS 090650Z 11004KT 0200 R16/0400 R34/0350 FG VV002 10/09 Q1021 NOSIG=
METAR LGTS 090620Z VRB03KT 0200 R16/0600 R34/0400 FG VV002 10/09 Q1021 NOSIG=
METAR LGTS 090550Z VRB03KT 0100 R16/0400 R34/0400 FG VV001 10/08 Q1021 NOSIG=
METAR LGTS 090520Z VRB02KT 0100 R16/0300 R34/0370 FG VV001 10/08 Q1021 NOSIG=
METAR LGTS 090450Z NIL=
METAR LGTS 090420Z NIL=
METAR LGTS 090350Z VRB02KT 0100 FG VV002 10/09 Q1020 NOSIG=
METAR LGTS 090320Z VRB02KT 0100 FG VV002 10/09 Q1020 NOSIG
1 x


airport123
Economy-Class
Economy-Class
Δημοσιεύσεις: 198
Εγγραφή: 28 Οκτ 2016, 11:51
Αγαπημένη αεροπορική εταιρεία (ICAO Code): AEE
Πλησιέστερο αεροδρόμιο (ICAO Code): LGTS

Re: LGTS/SKG Thessaloniki "Makedonia"

Δημοσίευσηαπό airport123 » 10 Νοέμ 2017, 15:58

Οκτώβριος

Εσωτερικό : 196,886 (195,981 το 2016 ) + 0.5%
Εξωτερικό : 357,648 (309,689 τo 2016 ) + 15.5%

Σύνολο Οκτωβρίου : 554,534 (505,670 το 2016) + 9.7%

Σύνολο 10μήνου : 5,588,420 (4,949,038 το τo 2016) + 12.9%
3 x

airport123
Economy-Class
Economy-Class
Δημοσιεύσεις: 198
Εγγραφή: 28 Οκτ 2016, 11:51
Αγαπημένη αεροπορική εταιρεία (ICAO Code): AEE
Πλησιέστερο αεροδρόμιο (ICAO Code): LGTS

Re: LGTS/SKG Thessaloniki "Makedonia"

Δημοσίευσηαπό airport123 » 11 Νοέμ 2017, 13:37

Έχουμε κάποιο νέο για το πότε επιτέλους θα ξεκινήσουν τα έργα στο διάδρομο ;
0 x

Ulrike
Business-Class
Business-Class
Δημοσιεύσεις: 464
Εγγραφή: 30 Δεκ 2011, 11:01
Πλησιέστερο αεροδρόμιο (ICAO Code): LGTS

Re: LGTS/SKG Thessaloniki "Makedonia"

Δημοσίευσηαπό Ulrike » 13 Νοέμ 2017, 10:36

Χθες απόγευμα όταν έφυγα από Θεσσαλονίκη, είδα αρκετά συνεργεία στον παράλληλο διάδρομο. Μήπως διαπίστωσαν και άλλα προβλήματα που πρέπει να διορθώσουν πριν τον χρησιμοποιούν για προσγειώσεις / απογειώσεις;

Η προσγείωση Σάββατο πρωί και η απογείωση Κυριακή απόγευμα φυσικά έγινε από τον κανονικό διάδρομο. Αν και το Σάββατο το αεροπλάνο γύρισε πίσω στον ίδιο διάδρομο.

Δηλ. προφανώς κάποια έργα γίνονται αυτή τη στιγμή, αν και μέχρι χθες δεν έκλεισε ο διάδρομος.
1 x


Άβαταρ μέλους
panos_
Economy-Class
Economy-Class
Δημοσιεύσεις: 164
Εγγραφή: 26 Αύγ 2009, 16:26
Αγαπημένη αεροπορική εταιρεία (ICAO Code): CSA
Πλησιέστερο αεροδρόμιο (ICAO Code): LGTS
Τοποθεσία: Thessaloniki
Επικοινωνία:

Re: LGTS/SKG Thessaloniki "Makedonia"

Δημοσίευσηαπό panos_ » 13 Νοέμ 2017, 12:59

Σύμφωνα με αυτό αυτό το άρθρο, από τις 16 Νοεμβρίου θα ενεργοποιηθεί ο 10L/28R.
0 x

airport123
Economy-Class
Economy-Class
Δημοσιεύσεις: 198
Εγγραφή: 28 Οκτ 2016, 11:51
Αγαπημένη αεροπορική εταιρεία (ICAO Code): AEE
Πλησιέστερο αεροδρόμιο (ICAO Code): LGTS

Re: LGTS/SKG Thessaloniki "Makedonia"

Δημοσίευσηαπό airport123 » 13 Νοέμ 2017, 13:47

Έχουν βγει δεκαδες άρθρα που δίνουν κάποια ημερομηνία. Αν δεν το δούμε δεν πιστεύουμε τίποτα. Αν όμως μέχρι τις 16 Δεκεμβρίου δεν ξεκινήσουν... αντίο καλοκαιρινή σεζόν 2018
0 x

airport123
Economy-Class
Economy-Class
Δημοσιεύσεις: 198
Εγγραφή: 28 Οκτ 2016, 11:51
Αγαπημένη αεροπορική εταιρεία (ICAO Code): AEE
Πλησιέστερο αεροδρόμιο (ICAO Code): LGTS

Re: LGTS/SKG Thessaloniki "Makedonia"

Δημοσίευσηαπό airport123 » 13 Νοέμ 2017, 18:41

Έχουμε κάποιες ειδήσεις/εξελίξεις για το αεροδρόμιο. Τα πιο σημαντικά από τα όσα δήλωσε στο Αθηναϊκό/Μακεδονικό Πρακτορείο Ειδήσεων (ΑΠΕ-ΜΠΕ), ο Γιώργος Βήλος, Γενικός Διευθυντής Εμπορικής και Επιχειρηματικής Ανάπτυξης της Fraport Greece είναι τα ακόλουθα :

Μέσα στο Νοέμβριο θα αρχίσουν τα έργα στο αεροδρόμιο Μακεδονία που αφορούν τη διασταύρωση των διαδρόμων 16/34 και 10/28
...
κοινός στόχος με το υπουργείο Μεταφορών και Υποδομών να ολοκληρωθούν πριν από την έναρξη της καλοκαιρινής περιόδου
...
«ξεκινάνε άμεσα οι εργασίες για το νέο τερματικό σταθμό, ενώ στον υφιστάμενο τερματικό σταθμό θα γίνουν εργασίες εσωτερικής αναδιαμόρφωσης που θα χουν ως αποτέλεσμα να διπλασιαστεί ο χώρος που περιμένουν οι επιβάτες για την επιβίβασή τους στα αεροπλάνα».
...
«θα αλλάξουν οι χώροι όπου γίνεται το security check (έλεγχος ασφαλείας) των επιβατών και θα γίνει αναδιαμόρφωση των υφιστάμενων εμπορικών χώρων».


http://www.newsbomb.gr/ellada/news/stor ... -makedonia
0 x


spotterakis
Concorde-Class
Concorde-Class
Δημοσιεύσεις: 1969
Εγγραφή: 21 Ιαν 2008, 21:33
Αγαπημένη αεροπορική εταιρεία (ICAO Code): EZY
Πλησιέστερο αεροδρόμιο (ICAO Code): LGTS

Re: LGTS/SKG Thessaloniki "Makedonia"

Δημοσίευσηαπό spotterakis » 17 Νοέμ 2017, 17:10

17Ν σημερα και τα αεροπλανα ακομα χρησιμοποιουν τον 16/34...Υποτιθεται χτες θα αρχιζαν τα εργα κ η χρηση του τροχοδρομου του 10/28...Θα παμε γιορτες τωρα ; :roll:
0 x

AirLaw
Economy-Class
Economy-Class
Δημοσιεύσεις: 162
Εγγραφή: 23 Απρ 2009, 06:21

Re: LGTS/SKG Thessaloniki "Makedonia"

Δημοσίευσηαπό AirLaw » 17 Νοέμ 2017, 19:46

Spotterakis, σύμφωνα με το NOTAM: A3104/17 ο 10/28 ενεργοποιείται για test flights στις 21/11 από 0600-2000 Ζ και στις 22/11 ενεργοποιείται στις 0700 Ζ ο 10/28 και κλείνει ο 16/34 μέχρι νεοτέρας βάση του NOTAM A3105/17 (προφανώς μέχρι να τελειώσουν τα έργα)
0 x



Επιστροφή σε “Αερολιμένας Θεσσαλονίκης”

Μέλη σε σύνδεση

Μέλη σε αυτήν τη Δ. Συζήτηση: Δεν υπάρχουν εγγεγραμμένα μέλη και 0 επισκέπτες